createdAt,value
2017-11-03T00:00:51.417Z,0
2017-11-03T00:01:51.385Z,0
2017-11-03T00:02:50.704Z,0
2017-11-03T00:03:50.681Z,0
2017-11-03T00:04:51.340Z,0
2017-11-03T00:05:50.320Z,0
2017-11-03T00:06:50.643Z,0
2017-11-03T00:07:50.282Z,0
2017-11-03T00:08:51.273Z,0
2017-11-03T00:09:49.922Z,0
2017-11-03T00:10:50.570Z,0
2017-11-03T00:11:50.549Z,0
2017-11-03T00:12:50.542Z,0
2017-11-03T00:13:50.529Z,0
2017-11-03T00:14:50.496Z,0
2017-11-03T00:15:50.192Z,0
2017-11-03T00:16:50.127Z,0
2017-11-03T00:17:50.458Z,0
2017-11-03T00:18:51.104Z,0
2017-11-03T00:19:50.746Z,0
2017-11-03T00:20:50.064Z,0
2017-11-03T00:21:51.058Z,0
2017-11-03T00:22:50.362Z,0
2017-11-03T00:23:50.684Z,0
2017-11-03T00:24:51.208Z,0
2017-11-03T00:25:50.644Z,0
2017-11-03T00:26:50.355Z,0
2017-11-03T00:27:50.955Z,0
2017-11-03T00:28:50.260Z,0
2017-11-03T00:29:50.583Z,0
2017-11-03T00:30:50.561Z,0
2017-11-03T00:31:50.548Z,0
2017-11-03T00:32:50.521Z,0
2017-11-03T00:33:50.186Z,0
2017-11-03T00:34:50.172Z,0
2017-11-03T00:35:50.141Z,0
2017-11-03T00:36:50.791Z,0
2017-11-03T00:37:50.104Z,0
2017-11-03T00:38:49.759Z,0
2017-11-03T00:39:49.741Z,0
2017-11-03T00:40:50.054Z,0
2017-11-03T00:41:50.045Z,0
2017-11-03T00:42:50.689Z,0
2017-11-03T00:43:50.678Z,0
2017-11-03T00:44:49.657Z,0
2017-11-03T00:45:49.309Z,0
2017-11-03T00:46:49.956Z,0
2017-11-03T00:47:49.962Z,0
2017-11-03T00:48:50.259Z,0
2017-11-03T00:49:50.574Z,0
2017-11-03T00:50:49.908Z,0
2017-11-03T00:51:50.262Z,0
2017-11-03T00:52:49.858Z,0
2017-11-03T00:53:49.510Z,0
2017-11-03T00:54:49.489Z,0
2017-11-03T00:55:49.809Z,0
2017-11-03T00:56:49.460Z,0
2017-11-03T00:57:49.776Z,0
2017-11-03T00:58:49.756Z,0
2017-11-03T00:59:50.075Z,0
2017-11-03T01:00:50.059Z,0
2017-11-03T01:01:50.044Z,0
2017-11-03T01:02:50.041Z,0
2017-11-03T01:03:50.041Z,0
2017-11-03T01:04:49.662Z,0
2017-11-03T01:05:48.971Z,0
2017-11-03T01:06:49.296Z,0
2017-11-03T01:07:49.630Z,0
2017-11-03T01:08:49.591Z,0
2017-11-03T01:09:49.924Z,0
2017-11-03T01:10:49.557Z,0
2017-11-03T01:11:49.592Z,0
2017-11-03T01:12:50.209Z,0
2017-11-03T01:13:50.178Z,0
2017-11-03T01:14:50.156Z,0
2017-11-03T01:15:49.809Z,0
2017-11-03T01:16:49.129Z,0
2017-11-03T01:17:49.439Z,0
2017-11-03T01:18:49.764Z,0
2017-11-03T01:19:50.087Z,0
2017-11-03T01:20:49.390Z,0
2017-11-03T01:21:49.375Z,0
2017-11-03T01:22:49.688Z,0
2017-11-03T01:23:49.679Z,0
2017-11-03T01:24:49.664Z,0
2017-11-03T01:25:49.304Z,0
2017-11-03T01:26:49.289Z,0
2017-11-03T01:27:49.942Z,0
2017-11-03T01:28:49.598Z,0
2017-11-03T01:29:49.244Z,0
2017-11-03T01:30:48.882Z,0
2017-11-03T01:31:49.551Z,0
2017-11-03T01:32:49.526Z,0
2017-11-03T01:33:49.174Z,0
2017-11-03T01:34:49.156Z,0
2017-11-03T01:35:48.806Z,0
2017-11-03T01:36:49.457Z,0
2017-11-03T01:37:49.713Z,0
2017-11-03T01:38:49.754Z,0
2017-11-03T01:39:49.066Z,0
2017-11-03T01:40:49.395Z,0
2017-11-03T01:41:49.703Z,0
2017-11-03T01:42:49.026Z,0
2017-11-03T01:43:48.682Z,0
2017-11-03T01:44:49.334Z,0
2017-11-03T01:45:48.647Z,0
2017-11-03T01:46:49.284Z,0
2017-11-03T01:47:48.624Z,0
2017-11-03T01:48:49.260Z,0
2017-11-03T01:49:48.573Z,0
2017-11-03T01:50:49.562Z,0
2017-11-03T01:51:48.871Z,0
2017-11-03T01:52:48.526Z,0
2017-11-03T01:53:48.838Z,0
2017-11-03T01:54:48.480Z,0
2017-11-03T01:55:49.145Z,0
2017-11-03T01:56:49.119Z,0
2017-11-03T01:57:49.441Z,0
2017-11-03T01:58:49.093Z,0
2017-11-03T01:59:48.744Z,0
2017-11-03T02:00:49.051Z,0
2017-11-03T02:01:49.372Z,0
2017-11-03T02:02:48.704Z,0
2017-11-03T02:03:48.338Z,0
2017-11-03T02:04:48.323Z,0
2017-11-03T02:05:48.635Z,0
2017-11-03T02:06:48.620Z,0
2017-11-03T02:07:48.658Z,0
2017-11-03T02:08:48.581Z,0
2017-11-03T02:09:48.566Z,0
2017-11-03T02:10:48.546Z,0
2017-11-03T02:11:48.876Z,0
2017-11-03T02:12:48.568Z,0
2017-11-03T02:13:48.844Z,0
2017-11-03T02:14:48.487Z,0
2017-11-03T02:15:48.477Z,0
2017-11-03T02:16:48.789Z,0
2017-11-03T02:17:48.492Z,0
2017-11-03T02:18:48.430Z,0
2017-11-03T02:19:48.412Z,0
2017-11-03T02:20:49.063Z,0
2017-11-03T02:21:48.379Z,0
2017-11-03T02:22:48.030Z,0
2017-11-03T02:23:48.060Z,0
2017-11-03T02:24:48.651Z,0
2017-11-03T02:25:48.305Z,0
2017-11-03T02:26:48.303Z,0
2017-11-03T02:27:48.279Z,0
2017-11-03T02:28:48.258Z,0
2017-11-03T02:29:48.242Z,0
2017-11-03T02:30:48.906Z,0
2017-11-03T02:31:48.213Z,0
2017-11-03T02:32:48.530Z,0
2017-11-03T02:33:48.505Z,0
2017-11-03T02:34:48.156Z,0
2017-11-03T02:35:48.811Z,0
2017-11-03T02:36:48.115Z,0
2017-11-03T02:37:48.109Z,0
2017-11-03T02:38:48.754Z,0
2017-11-03T02:39:48.079Z,0
2017-11-03T02:40:48.383Z,0
2017-11-03T02:41:48.376Z,0
2017-11-03T02:42:48.357Z,0
2017-11-03T02:43:48.010Z,0
2017-11-03T02:44:48.330Z,0
2017-11-03T02:45:48.309Z,0
2017-11-03T02:46:47.957Z,0
2017-11-03T02:47:47.936Z,0
2017-11-03T02:48:47.932Z,0
2017-11-03T02:49:48.578Z,0
2017-11-03T02:50:47.236Z,0
2017-11-03T02:51:47.212Z,0
2017-11-03T02:52:48.529Z,0
2017-11-03T02:53:48.174Z,0
2017-11-03T02:54:48.507Z,0
2017-11-03T02:55:47.813Z,0
2017-11-03T02:56:48.130Z,0
2017-11-03T02:57:47.776Z,0
2017-11-03T02:58:47.438Z,0
2017-11-03T02:59:48.084Z,0
2017-11-03T03:00:47.731Z,0
2017-11-03T03:01:48.046Z,0
2017-11-03T03:02:47.360Z,0
2017-11-03T03:03:47.683Z,0
2017-11-03T03:04:48.333Z,0
2017-11-03T03:05:47.989Z,0
2017-11-03T03:06:48.308Z,0
2017-11-03T03:07:47.619Z,0
2017-11-03T03:08:47.602Z,0
2017-11-03T03:09:47.245Z,0
2017-11-03T03:10:47.905Z,0
2017-11-03T03:11:47.893Z,0
2017-11-03T03:12:47.537Z,0
2017-11-03T03:13:47.514Z,0
2017-11-03T03:14:47.508Z,0
2017-11-03T03:15:47.493Z,0
2017-11-03T03:16:47.135Z,0
2017-11-03T03:17:47.789Z,0
2017-11-03T03:18:47.769Z,0
2017-11-03T03:19:47.759Z,0
2017-11-03T03:20:48.078Z,0
2017-11-03T03:21:48.065Z,0
2017-11-03T03:22:47.366Z,0
2017-11-03T03:23:47.352Z,0
2017-11-03T03:24:47.349Z,0
2017-11-03T03:25:47.333Z,0
2017-11-03T03:26:47.640Z,0
2017-11-03T03:27:47.621Z,0
2017-11-03T03:28:47.609Z,0
2017-11-03T03:29:47.922Z,0
2017-11-03T03:30:46.916Z,0
2017-11-03T03:31:47.894Z,0
2017-11-03T03:32:47.212Z,0
2017-11-03T03:33:46.528Z,0
2017-11-03T03:34:47.182Z,0
2017-11-03T03:35:46.832Z,0
2017-11-03T03:36:47.157Z,0
2017-11-03T03:37:47.497Z,0
2017-11-03T03:38:47.447Z,0
2017-11-03T03:39:47.097Z,0
2017-11-03T03:40:47.087Z,0
2017-11-03T03:41:47.739Z,0
2017-11-03T03:42:47.062Z,0
2017-11-03T03:43:47.379Z,0
2017-11-03T03:44:47.029Z,0
2017-11-03T03:45:47.678Z,0
2017-11-03T03:46:47.656Z,0
2017-11-03T03:47:47.295Z,0
2017-11-03T03:48:47.278Z,0
2017-11-03T03:49:46.938Z,0
2017-11-03T03:50:47.251Z,0
2017-11-03T03:51:46.577Z,0
2017-11-03T03:52:47.225Z,0
2017-11-03T03:53:47.207Z,0
2017-11-03T03:54:46.867Z,0
2017-11-03T03:55:46.835Z,0
2017-11-03T03:56:46.490Z,0
2017-11-03T03:57:46.807Z,0
2017-11-03T03:58:46.797Z,0
2017-11-03T03:59:47.106Z,0
2017-11-03T04:00:46.758Z,0
2017-11-03T04:01:47.074Z,0
2017-11-03T04:02:47.069Z,0
2017-11-03T04:03:47.389Z,0
2017-11-03T04:04:46.371Z,0
2017-11-03T04:05:46.339Z,0
2017-11-03T04:06:46.997Z,0
2017-11-03T04:07:46.975Z,0
2017-11-03T04:08:46.640Z,0
2017-11-03T04:09:46.662Z,0
2017-11-03T04:10:46.602Z,0
2017-11-03T04:11:46.583Z,0
2017-11-03T04:12:46.232Z,0
2017-11-03T04:13:46.877Z,0
2017-11-03T04:14:46.869Z,0
2017-11-03T04:15:47.183Z,0
2017-11-03T04:16:46.850Z,0
2017-11-03T04:17:46.817Z,0
2017-11-03T04:18:47.143Z,0
2017-11-03T04:19:46.121Z,0
2017-11-03T04:20:46.444Z,0
2017-11-03T04:21:46.428Z,0
2017-11-03T04:22:46.416Z,0
2017-11-03T04:23:46.730Z,0
2017-11-03T04:24:46.725Z,0
2017-11-03T04:25:46.013Z,0
2017-11-03T04:26:47.021Z,0
2017-11-03T04:27:46.317Z,0
2017-11-03T04:28:46.646Z,0
2017-11-03T04:29:45.955Z,0
2017-11-03T04:30:46.289Z,0
2017-11-03T04:31:46.594Z,0
2017-11-03T04:32:46.251Z,0
2017-11-03T04:33:46.223Z,0
2017-11-03T04:34:46.539Z,0
2017-11-03T04:35:46.529Z,0
2017-11-03T04:36:45.849Z,0
2017-11-03T04:37:45.834Z,0
2017-11-03T04:38:46.488Z,0
2017-11-03T04:39:46.457Z,0
2017-11-03T04:40:46.453Z,0
2017-11-03T04:41:45.765Z,0
2017-11-03T04:42:46.069Z,0
2017-11-03T04:43:45.727Z,0
2017-11-03T04:44:46.037Z,0
2017-11-03T04:45:46.365Z,0
2017-11-03T04:46:45.675Z,0
2017-11-03T04:47:46.331Z,0
2017-11-03T04:48:46.650Z,0
2017-11-03T04:49:45.967Z,0
2017-11-03T04:50:45.946Z,0
2017-11-03T04:51:45.592Z,0
2017-11-03T04:52:46.579Z,0
2017-11-03T04:53:46.229Z,0
2017-11-03T04:54:46.252Z,0
2017-11-03T04:55:45.581Z,0
2017-11-03T04:56:46.184Z,0
2017-11-03T04:57:45.828Z,0
2017-11-03T04:58:45.824Z,0
2017-11-03T04:59:45.791Z,0
2017-11-03T05:00:46.114Z,0
2017-11-03T05:01:45.768Z,0
2017-11-03T05:02:45.414Z,0
2017-11-03T05:03:45.729Z,0
2017-11-03T05:04:45.378Z,0
2017-11-03T05:05:45.362Z,0
2017-11-03T05:06:45.672Z,0
2017-11-03T05:07:45.997Z,0
2017-11-03T05:08:45.988Z,0
2017-11-03T05:09:45.640Z,0
2017-11-03T05:10:45.961Z,0
2017-11-03T05:11:45.604Z,0
2017-11-03T05:12:45.588Z,0
2017-11-03T05:13:45.891Z,0
2017-11-03T05:14:46.214Z,0
2017-11-03T05:15:45.195Z,0
2017-11-03T05:16:46.184Z,0
2017-11-03T05:17:45.497Z,0
2017-11-03T05:18:45.819Z,0
2017-11-03T05:19:45.801Z,0
2017-11-03T05:20:45.446Z,0
2017-11-03T05:21:45.770Z,0
2017-11-03T05:22:45.419Z,0
2017-11-03T05:23:45.739Z,0
2017-11-03T05:24:45.740Z,0
2017-11-03T05:25:46.039Z,0
2017-11-03T05:26:44.680Z,0
2017-11-03T05:27:44.659Z,0
2017-11-03T05:28:44.972Z,0
2017-11-03T05:29:45.298Z,0
2017-11-03T05:30:45.623Z,0
2017-11-03T05:31:45.260Z,0
2017-11-03T05:32:45.923Z,0
2017-11-03T05:33:45.230Z,0
2017-11-03T05:34:44.878Z,0
2017-11-03T05:35:45.866Z,0
2017-11-03T05:36:44.523Z,0
2017-11-03T05:37:45.505Z,0
2017-11-03T05:38:45.678Z,0
2017-11-03T05:39:45.122Z,0
2017-11-03T05:40:45.109Z,0
2017-11-03T05:41:45.430Z,0
2017-11-03T05:42:45.083Z,0
2017-11-03T05:43:45.401Z,0
2017-11-03T05:44:45.382Z,0
2017-11-03T05:45:45.367Z,0
2017-11-03T05:46:45.352Z,0
2017-11-03T05:47:45.004Z,0
2017-11-03T05:48:44.979Z,0
2017-11-03T05:49:45.637Z,0
2017-11-03T05:50:45.625Z,0
2017-11-03T05:51:45.260Z,0
2017-11-03T05:52:44.923Z,0
2017-11-03T05:53:45.243Z,0
2017-11-03T05:54:44.889Z,0
2017-11-03T05:55:45.196Z,0
2017-11-03T05:56:45.520Z,0
2017-11-03T05:57:44.171Z,0
2017-11-03T05:58:44.482Z,0
2017-11-03T05:59:45.469Z,0
2017-11-03T06:00:45.134Z,0
2017-11-03T06:01:45.101Z,0
2017-11-03T06:02:45.087Z,0
2017-11-03T06:03:45.081Z,0
2017-11-03T06:04:45.060Z,0
2017-11-03T06:05:45.038Z,0
2017-11-03T06:06:45.012Z,0
2017-11-03T06:07:45.011Z,0
2017-11-03T06:08:44.986Z,0
2017-11-03T06:09:45.304Z,0
2017-11-03T06:10:44.619Z,0
2017-11-03T06:11:44.282Z,0
2017-11-03T06:12:45.248Z,0
2017-11-03T06:13:44.895Z,0
2017-11-03T06:14:44.893Z,0
2017-11-03T06:15:44.204Z,0
2017-11-03T06:16:44.857Z,0
2017-11-03T06:17:43.834Z,0
2017-11-03T06:18:44.496Z,0
2017-11-03T06:19:44.815Z,0
2017-11-03T06:20:44.119Z,0
2017-11-03T06:21:44.435Z,0
2017-11-03T06:22:44.422Z,0
2017-11-03T06:23:45.077Z,0
2017-11-03T06:24:43.720Z,0
2017-11-03T06:25:44.701Z,0
2017-11-03T06:26:44.401Z,0
2017-11-03T06:27:44.346Z,0
2017-11-03T06:28:44.652Z,0
2017-11-03T06:29:44.637Z,0
2017-11-03T06:30:44.634Z,0
2017-11-03T06:31:43.937Z,0
2017-11-03T06:32:44.249Z,0
2017-11-03T06:33:44.577Z,0
2017-11-03T06:34:43.893Z,0
2017-11-03T06:35:44.898Z,5
2017-11-03T06:36:44.574Z,5
2017-11-03T06:37:44.509Z,5
2017-11-03T06:38:44.161Z,5
2017-11-03T06:39:44.479Z,5
2017-11-03T06:40:43.790Z,5
2017-11-03T06:41:44.462Z,5
2017-11-03T06:42:43.759Z,5
2017-11-03T06:43:44.427Z,5
2017-11-03T06:44:44.059Z,5
2017-11-03T06:45:44.037Z,5
2017-11-03T06:46:43.688Z,5
2017-11-03T06:47:44.339Z,5
2017-11-03T06:48:43.989Z,10
2017-11-03T06:49:44.312Z,10
2017-11-03T06:50:43.985Z,10
2017-11-03T06:51:44.277Z,10
2017-11-03T06:52:44.593Z,10
2017-11-03T06:53:43.916Z,10
2017-11-03T06:54:43.889Z,5
2017-11-03T06:55:43.200Z,5
2017-11-03T06:56:43.851Z,5
2017-11-03T06:57:43.839Z,10
2017-11-03T06:58:44.162Z,10
2017-11-03T06:59:44.485Z,15
2017-11-03T07:00:44.470Z,15
2017-11-03T07:01:44.107Z,15
2017-11-03T07:02:43.752Z,15
2017-11-03T07:03:44.081Z,15
2017-11-03T07:04:43.393Z,15
2017-11-03T07:05:43.375Z,15
2017-11-03T07:06:43.373Z,15
2017-11-03T07:07:43.675Z,15
2017-11-03T07:08:44.002Z,15
2017-11-03T07:09:44.330Z,15
2017-11-03T07:10:43.964Z,15
2017-11-03T07:11:43.617Z,20
2017-11-03T07:12:43.590Z,20
2017-11-03T07:13:43.575Z,20
2017-11-03T07:14:43.577Z,20
2017-11-03T07:15:43.554Z,20
2017-11-03T07:16:43.532Z,20
2017-11-03T07:17:44.215Z,20
2017-11-03T07:18:43.163Z,20
2017-11-03T07:19:44.147Z,20
2017-11-03T07:20:44.185Z,20
2017-11-03T07:21:43.450Z,20
2017-11-03T07:22:43.782Z,25
2017-11-03T07:23:44.086Z,25
2017-11-03T07:24:43.730Z,25
2017-11-03T07:25:43.714Z,25
2017-11-03T07:26:43.040Z,25
2017-11-03T07:27:43.397Z,25
2017-11-03T07:28:43.656Z,25
2017-11-03T07:29:43.307Z,25
2017-11-03T07:30:44.008Z,25
2017-11-03T07:31:42.943Z,30
2017-11-03T07:32:43.606Z,30
2017-11-03T07:33:42.578Z,30
2017-11-03T07:34:42.894Z,30
2017-11-03T07:35:43.222Z,30
2017-11-03T07:36:43.872Z,30
2017-11-03T07:37:42.513Z,30
2017-11-03T07:38:44.037Z,30
2017-11-03T07:39:43.481Z,30
2017-11-03T07:40:43.494Z,30
2017-11-03T07:41:43.120Z,30
2017-11-03T07:42:43.195Z,35
2017-11-03T07:43:43.081Z,35
2017-11-03T07:44:42.736Z,30
2017-11-03T07:45:43.047Z,30
2017-11-03T07:46:43.370Z,35
2017-11-03T07:47:43.354Z,35
2017-11-03T07:48:43.329Z,35
2017-11-03T07:49:42.984Z,35
2017-11-03T07:50:42.980Z,35
2017-11-03T07:51:42.620Z,35
2017-11-03T07:52:43.287Z,35
2017-11-03T07:53:42.586Z,35
2017-11-03T07:54:42.589Z,35
2017-11-03T07:55:42.900Z,35
2017-11-03T07:56:43.225Z,30
2017-11-03T07:57:43.207Z,30
2017-11-03T07:58:43.509Z,35
2017-11-03T07:59:42.821Z,40
2017-11-03T08:00:43.343Z,40
2017-11-03T08:01:42.465Z,40
2017-11-03T08:02:42.785Z,40
2017-11-03T08:03:43.110Z,35
2017-11-03T08:04:43.105Z,40
2017-11-03T08:05:42.724Z,45
2017-11-03T08:06:43.049Z,50
2017-11-03T08:07:43.042Z,50
2017-11-03T08:08:43.021Z,50
2017-11-03T08:09:43.000Z,45
2017-11-03T08:10:42.985Z,50
2017-11-03T08:11:42.681Z,50
2017-11-03T08:12:42.620Z,50
2017-11-03T08:13:42.940Z,50
2017-11-03T08:14:42.920Z,50
2017-11-03T08:15:42.568Z,50
2017-11-03T08:16:42.552Z,50
2017-11-03T08:17:42.877Z,55
2017-11-03T08:18:42.577Z,55
2017-11-03T08:19:42.504Z,55
2017-11-03T08:20:42.487Z,55
2017-11-03T08:21:42.140Z,55
2017-11-03T08:22:42.801Z,60
2017-11-03T08:23:42.773Z,60
2017-11-03T08:24:43.090Z,60
2017-11-03T08:25:42.411Z,60
2017-11-03T08:26:42.728Z,65
2017-11-03T08:27:42.384Z,65
2017-11-03T08:28:43.030Z,65
2017-11-03T08:29:42.011Z,65
2017-11-03T08:30:42.003Z,65
2017-11-03T08:31:41.980Z,65
2017-11-03T08:32:42.633Z,65
2017-11-03T08:33:42.711Z,65
2017-11-03T08:34:42.287Z,70
2017-11-03T08:35:42.256Z,70
2017-11-03T08:36:42.236Z,70
2017-11-03T08:37:42.904Z,70
2017-11-03T08:38:41.871Z,70
2017-11-03T08:39:41.525Z,70
2017-11-03T08:40:42.522Z,70
2017-11-03T08:41:42.154Z,70
2017-11-03T08:42:42.480Z,70
2017-11-03T08:43:42.618Z,70
2017-11-03T08:44:42.124Z,70
2017-11-03T08:45:42.449Z,70
2017-11-03T08:46:42.094Z,70
2017-11-03T08:47:42.068Z,70
2017-11-03T08:48:41.775Z,70
2017-11-03T08:49:42.377Z,75
2017-11-03T08:50:42.355Z,75
2017-11-03T08:51:42.329Z,75
2017-11-03T08:52:41.659Z,75
2017-11-03T08:53:42.303Z,80
2017-11-03T08:54:41.620Z,80
2017-11-03T08:55:41.976Z,80
2017-11-03T08:56:42.263Z,80
2017-11-03T08:57:41.910Z,80
2017-11-03T08:58:41.610Z,85
2017-11-03T08:59:41.548Z,85
2017-11-03T09:00:42.199Z,85
2017-11-03T09:01:41.845Z,85
2017-11-03T09:02:41.498Z,85
2017-11-03T09:03:42.167Z,85
2017-11-03T09:04:41.477Z,85
2017-11-03T09:05:42.122Z,85
2017-11-03T09:06:41.113Z,85
2017-11-03T09:07:42.429Z,85
2017-11-03T09:08:42.075Z,85
2017-11-03T09:09:41.730Z,85
2017-11-03T09:10:42.378Z,85
2017-11-03T09:11:42.366Z,85
2017-11-03T09:12:41.673Z,85
2017-11-03T09:13:41.721Z,85
2017-11-03T09:14:42.326Z,85
2017-11-03T09:15:41.972Z,85
2017-11-03T09:16:41.952Z,85
2017-11-03T09:17:40.945Z,85
2017-11-03T09:18:41.927Z,85
2017-11-03T09:19:41.580Z,85
2017-11-03T09:20:41.237Z,90
2017-11-03T09:21:41.890Z,90
2017-11-03T09:22:41.529Z,90
2017-11-03T09:23:41.898Z,90
2017-11-03T09:24:41.840Z,90
2017-11-03T09:25:41.505Z,90
2017-11-03T09:26:40.801Z,95
2017-11-03T09:27:41.787Z,95
2017-11-03T09:28:41.772Z,95
2017-11-03T09:29:41.456Z,95
2017-11-03T09:30:42.103Z,95
2017-11-03T09:31:42.082Z,95
2017-11-03T09:32:41.375Z,95
2017-11-03T09:33:41.423Z,95
2017-11-03T09:34:42.011Z,90
2017-11-03T09:35:41.330Z,95
2017-11-03T09:36:41.311Z,95
2017-11-03T09:37:40.968Z,95
2017-11-03T09:38:41.568Z,95
2017-11-03T09:39:40.957Z,95
2017-11-03T09:40:41.601Z,100
2017-11-03T09:41:41.242Z,100
2017-11-03T09:42:40.892Z,105
2017-11-03T09:43:41.213Z,105
2017-11-03T09:44:40.534Z,105
2017-11-03T09:45:40.855Z,105
2017-11-03T09:46:41.175Z,110
2017-11-03T09:47:41.500Z,110
2017-11-03T09:48:41.485Z,115
2017-11-03T09:49:40.793Z,115
2017-11-03T09:50:41.111Z,115
2017-11-03T09:51:41.100Z,115
2017-11-03T09:52:41.415Z,115
2017-11-03T09:53:41.409Z,115
2017-11-03T09:54:41.046Z,115
2017-11-03T09:55:41.370Z,115
2017-11-03T09:56:41.026Z,115
2017-11-03T09:57:41.356Z,115
2017-11-03T09:58:41.326Z,115
2017-11-03T09:59:41.327Z,115
2017-11-03T10:00:41.312Z,120
2017-11-03T10:01:41.290Z,120
2017-11-03T10:02:41.294Z,120
2017-11-03T10:03:41.263Z,120
2017-11-03T10:04:41.590Z,125
2017-11-03T10:05:41.241Z,125
2017-11-03T10:06:40.543Z,125
2017-11-03T10:07:41.193Z,130
2017-11-03T10:08:41.518Z,130
2017-11-03T10:09:41.212Z,130
2017-11-03T10:10:40.817Z,135
2017-11-03T10:11:41.144Z,135
2017-11-03T10:12:41.458Z,135
2017-11-03T10:13:40.777Z,140
2017-11-03T10:14:40.768Z,140
2017-11-03T10:15:40.414Z,140
2017-11-03T10:16:40.740Z,145
2017-11-03T10:17:41.047Z,150
2017-11-03T10:18:41.043Z,155
2017-11-03T10:19:40.718Z,160
2017-11-03T10:20:41.343Z,165
2017-11-03T10:21:40.660Z,165
2017-11-03T10:22:39.973Z,165
2017-11-03T10:23:40.301Z,170
2017-11-03T10:24:39.954Z,170
2017-11-03T10:25:40.935Z,170
2017-11-03T10:26:40.921Z,170
2017-11-03T10:27:40.581Z,170
2017-11-03T10:28:40.231Z,170
2017-11-03T10:29:40.544Z,170
2017-11-03T10:30:40.864Z,170
2017-11-03T10:31:40.186Z,165
2017-11-03T10:32:40.169Z,165
2017-11-03T10:33:40.157Z,165
2017-11-03T10:34:40.352Z,170
2017-11-03T10:35:40.470Z,165
2017-11-03T10:36:40.114Z,165
2017-11-03T10:37:40.777Z,165
2017-11-03T10:38:40.760Z,165
2017-11-03T10:39:40.746Z,165
2017-11-03T10:40:41.089Z,165
2017-11-03T10:41:41.048Z,160
2017-11-03T10:42:40.374Z,160
2017-11-03T10:43:40.351Z,160
2017-11-03T10:44:40.339Z,160
2017-11-03T10:45:40.322Z,155
2017-11-03T10:46:40.649Z,155
2017-11-03T10:47:40.308Z,155
2017-11-03T10:48:40.627Z,150
2017-11-03T10:49:40.934Z,145
2017-11-03T10:50:40.250Z,140
2017-11-03T10:51:40.576Z,130
2017-11-03T10:52:40.904Z,140
2017-11-03T10:53:40.546Z,145
2017-11-03T10:54:40.548Z,135
2017-11-03T10:55:40.852Z,125
2017-11-03T10:56:40.504Z,115
2017-11-03T10:57:40.823Z,125
2017-11-03T10:58:40.147Z,125
2017-11-03T10:59:40.512Z,135
2017-11-03T11:00:40.130Z,135
2017-11-03T11:01:40.443Z,140
2017-11-03T11:02:40.429Z,140
2017-11-03T11:03:40.415Z,140
2017-11-03T11:04:40.058Z,150
2017-11-03T11:05:39.376Z,155
2017-11-03T11:06:39.727Z,145
2017-11-03T11:07:40.027Z,140
2017-11-03T11:08:40.343Z,150
2017-11-03T11:09:40.002Z,150
2017-11-03T11:10:40.317Z,150
2017-11-03T11:11:40.297Z,145
2017-11-03T11:12:39.618Z,150
2017-11-03T11:13:40.607Z,150
2017-11-03T11:14:40.256Z,150
2017-11-03T11:15:40.295Z,150
2017-11-03T11:16:40.228Z,160
2017-11-03T11:17:39.562Z,160
2017-11-03T11:18:39.199Z,155
2017-11-03T11:19:39.522Z,145
2017-11-03T11:20:40.513Z,145
2017-11-03T11:21:39.821Z,150
2017-11-03T11:22:39.815Z,160
2017-11-03T11:23:40.471Z,150
2017-11-03T11:24:40.456Z,150
2017-11-03T11:25:40.112Z,145
2017-11-03T11:26:40.142Z,145
2017-11-03T11:27:39.748Z,140
2017-11-03T11:28:40.068Z,140
2017-11-03T11:29:39.730Z,140
2017-11-03T11:30:39.751Z,140
2017-11-03T11:31:39.693Z,135
2017-11-03T11:32:39.680Z,140
2017-11-03T11:33:39.663Z,155
2017-11-03T11:34:39.992Z,155
2017-11-03T11:35:39.638Z,160
2017-11-03T11:36:39.633Z,160
2017-11-03T11:37:40.283Z,160
2017-11-03T11:38:40.473Z,160
2017-11-03T11:39:39.943Z,165
2017-11-03T11:40:39.911Z,170
2017-11-03T11:41:39.577Z,175
2017-11-03T11:42:39.754Z,185
2017-11-03T11:43:39.194Z,190
2017-11-03T11:44:40.187Z,190
2017-11-03T11:45:39.178Z,190
2017-11-03T11:46:39.821Z,185
2017-11-03T11:47:39.143Z,180
2017-11-03T11:48:39.461Z,185
2017-11-03T11:49:39.783Z,185
2017-11-03T11:50:39.440Z,185
2017-11-03T11:51:39.432Z,185
2017-11-03T11:52:39.416Z,185
2017-11-03T11:53:40.067Z,185
2017-11-03T11:54:39.052Z,185
2017-11-03T11:55:38.707Z,185
2017-11-03T11:56:39.694Z,180
2017-11-03T11:57:39.346Z,175
2017-11-03T11:58:39.330Z,175
2017-11-03T11:59:39.313Z,175
2017-11-03T12:00:39.308Z,165
2017-11-03T12:01:39.953Z,155
2017-11-03T12:02:39.279Z,150
2017-11-03T12:03:39.590Z,140
2017-11-03T12:04:39.256Z,140
2017-11-03T12:05:39.904Z,145
2017-11-03T12:06:38.940Z,155
2017-11-03T12:07:39.914Z,165
2017-11-03T12:08:38.857Z,165
2017-11-03T12:09:39.882Z,155
2017-11-03T12:10:39.174Z,140
2017-11-03T12:11:39.492Z,130
2017-11-03T12:12:39.471Z,135
2017-11-03T12:13:39.133Z,140
2017-11-03T12:14:39.122Z,145
2017-11-03T12:15:39.452Z,135
2017-11-03T12:16:39.757Z,125
2017-11-03T12:17:39.408Z,120
2017-11-03T12:18:39.408Z,120
2017-11-03T12:19:39.058Z,120
2017-11-03T12:20:39.045Z,120
2017-11-03T12:21:39.079Z,125
2017-11-03T12:22:39.008Z,135
2017-11-03T12:23:39.022Z,140
2017-11-03T12:24:38.991Z,135
2017-11-03T12:25:39.318Z,135
2017-11-03T12:26:38.963Z,135
2017-11-03T12:27:38.957Z,130
2017-11-03T12:28:39.274Z,130
2017-11-03T12:29:38.922Z,130
2017-11-03T12:30:38.570Z,130
2017-11-03T12:31:39.560Z,130
2017-11-03T12:32:38.885Z,130
2017-11-03T12:33:39.200Z,130
2017-11-03T12:34:38.846Z,130
2017-11-03T12:35:38.853Z,130
2017-11-03T12:36:38.156Z,130
2017-11-03T12:37:38.835Z,125
2017-11-03T12:38:38.131Z,130
2017-11-03T12:39:38.447Z,135
2017-11-03T12:40:38.436Z,135
2017-11-03T12:41:38.773Z,140
2017-11-03T12:42:38.408Z,150
2017-11-03T12:43:38.728Z,155
2017-11-03T12:44:39.054Z,150
2017-11-03T12:45:39.045Z,140
2017-11-03T12:46:38.690Z,135
2017-11-03T12:47:39.003Z,135
2017-11-03T12:48:38.670Z,135
2017-11-03T12:49:38.332Z,135
2017-11-03T12:50:38.643Z,125
2017-11-03T12:51:38.286Z,125
2017-11-03T12:52:38.952Z,110
2017-11-03T12:53:38.940Z,90
2017-11-03T12:54:38.925Z,75
2017-11-03T12:55:38.575Z,70
2017-11-03T12:56:38.558Z,70
2017-11-03T12:57:38.876Z,65
2017-11-03T12:58:38.858Z,60
2017-11-03T12:59:37.840Z,65
2017-11-03T13:00:38.173Z,70
2017-11-03T13:01:38.816Z,75
2017-11-03T13:02:38.474Z,85
2017-11-03T13:03:38.120Z,100
2017-11-03T13:04:39.120Z,110
2017-11-03T13:05:38.099Z,120
2017-11-03T13:06:39.083Z,135
2017-11-03T13:07:39.069Z,150
2017-11-03T13:08:38.387Z,160
2017-11-03T13:09:38.741Z,175
2017-11-03T13:10:38.019Z,170
2017-11-03T13:11:37.676Z,160
2017-11-03T13:12:37.994Z,145
2017-11-03T13:13:38.643Z,140
2017-11-03T13:14:38.635Z,140
2017-11-03T13:15:38.951Z,140
2017-11-03T13:16:38.271Z,140
2017-11-03T13:17:38.314Z,145
2017-11-03T13:18:38.585Z,155
2017-11-03T13:19:38.563Z,160
2017-11-03T13:20:38.560Z,160
2017-11-03T13:21:37.549Z,165
2017-11-03T13:22:38.527Z,180
2017-11-03T13:23:38.178Z,165
2017-11-03T13:24:37.837Z,160
2017-11-03T13:25:38.486Z,160
2017-11-03T13:26:38.138Z,160
2017-11-03T13:27:38.332Z,160
2017-11-03T13:28:38.130Z,155
2017-11-03T13:29:38.126Z,155
2017-11-03T13:30:38.081Z,150
2017-11-03T13:31:37.739Z,140
2017-11-03T13:32:38.402Z,130
2017-11-03T13:33:38.390Z,125
2017-11-03T13:34:38.697Z,120
2017-11-03T13:35:38.695Z,115
2017-11-03T13:36:37.671Z,110
2017-11-03T13:37:38.003Z,105
2017-11-03T13:38:38.724Z,105
2017-11-03T13:39:37.641Z,105
2017-11-03T13:40:38.301Z,105
2017-11-03T13:41:37.945Z,105
2017-11-03T13:42:37.596Z,105
2017-11-03T13:43:37.929Z,105
2017-11-03T13:44:38.576Z,110
2017-11-03T13:45:37.895Z,110
2017-11-03T13:46:38.204Z,110
2017-11-03T13:47:37.868Z,110
2017-11-03T13:48:37.857Z,110
2017-11-03T13:49:38.173Z,105
2017-11-03T13:50:37.829Z,100
2017-11-03T13:51:38.145Z,95
2017-11-03T13:52:37.794Z,90
2017-11-03T13:53:38.112Z,85
2017-11-03T13:54:38.103Z,85
2017-11-03T13:55:38.100Z,80
2017-11-03T13:56:37.747Z,80
2017-11-03T13:57:38.129Z,85
2017-11-03T13:58:38.395Z,85
2017-11-03T13:59:37.368Z,80
2017-11-03T14:00:37.692Z,75
2017-11-03T14:01:37.680Z,70
2017-11-03T14:02:37.768Z,60
2017-11-03T14:03:38.316Z,50
2017-11-03T14:04:37.967Z,50
2017-11-03T14:05:37.619Z,45
2017-11-03T14:06:37.954Z,40
2017-11-03T14:07:37.937Z,40
2017-11-03T14:08:38.261Z,40
2017-11-03T14:09:37.906Z,40
2017-11-03T14:10:37.563Z,45
2017-11-03T14:11:37.877Z,55
2017-11-03T14:12:37.869Z,60
2017-11-03T14:13:37.844Z,55
2017-11-03T14:14:37.502Z,55
2017-11-03T14:15:37.490Z,55
2017-11-03T14:16:37.805Z,60
2017-11-03T14:17:37.125Z,65
2017-11-03T14:18:37.443Z,60
2017-11-03T14:19:37.771Z,65
2017-11-03T14:20:38.101Z,70
2017-11-03T14:21:37.735Z,80